Trevelin, Argentina
Current Conditions -  °F | °C
As of 6:00 AM on Saturday 29 Nov 2014 (Local Time) from SCFT Reporting Station
Clear Clear  
Wind Chill: 37°   Ceiling: Unl
Heat Index: 41°   Visibility: 6mi
Dew Point: 28°   Wind: 6mph
Humidity: 61%   Direction: 290°WNW
Pressure: 30.09"   Gusts: NA
Location:  43.07°S, 71.47°W
Report Text: SCFT 290900Z AUTO 29005KT 180V340 CAVOK 05/M02 Q1019
Loading
Personal Weather Stations






























Interactive Weather Map New forecast layout! Learn more

10-Day Weather Forecast

Advertisements
Track Severe Weather on mobile